Meteo Giornale » Osservazioni meteo Italia » Ronchi Dei Legionari

ore: 11:20 - Osservazioni Meteo Ronchi Dei Legionari
Lat. 45° 49' N Lon. 13° 29' E Alt. 12 metri s.l.m.

sereno Europe/Rome

25 °C

Sereno

Temp. 24 Ore

14 °C

29 °C

Nord

5.5 Km/h

Dew point 12 °C

Umidità 44 %

Visibilità  10 Km

Il sole sorge alle ore 05:40

Il sole tramonta alle ore 20:45

Data e Ora Cielo e Fenomeni T °C DP °C Um. % Pres. hPa Vis. km Vento km/h
Oggi h: 11:20 sereno Sereno 25 12 44 1005 10 N 5.5
Oggi h: 10:50 sereno Sereno 24 12 47 1005 10 N 3.7
Oggi h: 10:20 sereno Sereno 24 14 53 1005 10 N 3.7
Oggi h: 09:50 sereno Sereno 23 13 53 1005 10 N 3.7
Oggi h: 09:20 sereno Sereno 22 15 64 1005 10 N 3.7
Oggi h: 08:50 sereno Sereno 21 16 73 1005 10 N 5.5
Oggi h: 08:20 sereno Sereno 20 14 68 1005 10 N 3.7
Oggi h: 07:50 sereno Sereno 18 15 82 1005 10 N 5.5
Oggi h: 07:20 sereno Sereno 17 15 88 1005 10 N/NE 7.4
Oggi h: 06:50 sereno Sereno 15 14 93 1004 10 N 1.8
Oggi h: 06:20 sereno Sereno 14 13 93 1004 10 N 5.5
Oggi h: 05:50 sereno Sereno 14 14 100 1004 10 N 3.7
Oggi h: 05:20 sereno Sereno 14 14 100 1004 10 N 3.7
Oggi h: 04:50 sereno Sereno 15 14 93 1004 10 N/NO 9.3
Oggi h: 04:20 sereno Sereno 15 14 93 1004 10 N 5.5
Oggi h: 03:50 sereno Sereno 15 15 100 1004 10 N 1.8
Oggi h: 03:20 sereno Sereno 15 15 100 1004 10 N 5.5
Oggi h: 02:50 sereno Sereno 16 16 100 1004 10 N 5.5
Oggi h: 02:20 sereno Sereno 16 15 93 1004 10 N 3.7
Oggi h: 01:50 sereno Sereno 16 16 100 1004 10 N 7.4
Ieri h: 23:50 sereno Sereno 18 16 88 1003 10 N 5.5
Ieri h: 23:20 sereno Sereno 18 17 93 1003 10 N/NO 7.4
Ieri h: 22:50 sereno Sereno 18 17 93 1003 10 NO 7.4
Ieri h: 22:20 sereno Sereno 19 18 93 1003 10 N 3.7
Ieri h: 21:50 nuvoloso Nuvoloso 19 18 93 1003 10 N/NO 11.1
Ieri h: 21:20 poco_nuvoloso Poco Nuvoloso 19 18 93 1003 10 N 7.4
Ieri h: 20:50 sereno Sereno 19 18 93 1002 10 N/NO 9.3
Ieri h: 20:20 nuvoloso Nuvoloso 21 19 88 1002 10 N 5.5
Ieri h: 19:50 nuvoloso Nuvoloso 21 19 88 1003 10 E 11.1
Ieri h: 19:20 nuvoloso Nuvoloso 20 19 93 1003 10 N 3.7
Ieri h: 18:20 nuvoloso_temporali Temporale con Pioggia Debole 19 19 100 1002 10 NE 13
Ieri h: 17:50 coperto_pioggia Pioggia 19 18 93 1004 8 N 9.3
Ieri h: 17:20 nuvoloso_temporali Temporale con Pioggia Debole 19 18 93 1003 7 O/NO 18.5
Ieri h: 16:50 coperto_temporali Temporale Rovescio nelle Vicinanze 27 21 69 1001 10 S/SE 14.8
Ieri h: 16:20 molto_nuvoloso Molto Nuvoloso 28 20 61 1002 10 S/SO 7.4
Ieri h: 15:20 molto_nuvoloso Molto Nuvoloso 28 19 58 1002 10 S/SO 7.4
Ieri h: 14:50 molto_nuvoloso Molto Nuvoloso 28 19 58 1002 10 S 11.1
Ieri h: 14:20 molto_nuvoloso Molto Nuvoloso 29 19 54 1003 10 S 13
Ieri h: 13:50 molto_nuvoloso Molto Nuvoloso 28 19 58 1004 10 S 9.3
Ieri h: 13:20 poco_nuvoloso Poco Nuvoloso 29 20 58 1004 10 N 7.4
Ieri h: 12:50 poco_nuvoloso Poco Nuvoloso 28 18 54 1005 10 N 5.5